Time;durP1;ratioP1;P1;durP2;ratioP2;P2;SDS_P1;SDS_P2;PMS_P1;PMS_P2;Temp;Humidity;BMP_temperature;BMP_pressure;BME280_temperature;BME280_humidity;BME280_pressure;Samples;Min_cycle;Max_cycle;Signal;HPM_P1;HPM_P2
2023/07/13 00:01:46;;;;;;;2.07;1.57;;;28.20;50.00;;;;;;4993604;28;20455;-69
2023/07/13 00:04:12;;;;;;;2.00;1.57;;;28.10;50.00;;;;;;4993416;28;20786;-69
2023/07/13 00:06:37;;;;;;;4.37;1.90;;;28.10;49.90;;;;;;4992272;28;20412;-69
2023/07/13 00:09:03;;;;;;;3.97;2.10;;;28.10;50.00;;;;;;4993344;28;20208;-70
2023/07/13 00:11:29;;;;;;;2.60;1.90;;;28.10;50.50;;;;;;4993445;28;20266;-69
2023/07/13 00:14:55;;;;;;;1.67;1.57;;;28.10;49.90;;;;;;4993002;28;20197;-68
2023/07/13 00:17:21;;;;;;;2.47;2.00;;;28.20;49.70;;;;;;4955992;28;20446;-69
2023/07/13 00:19:47;;;;;;;1.77;1.63;;;28.10;49.40;;;;;;4993330;28;20427;-69
2023/07/13 00:22:12;;;;;;;3.53;1.87;;;28.10;49.40;;;;;;4992000;28;20177;-69
2023/07/13 00:24:41;;;;;;;2.83;2.20;;;28.10;49.30;;;;;;4993577;28;20188;-68
2023/07/13 00:27:09;;;;;;;2.27;2.07;;;28.10;49.20;;;;;;4992979;28;20729;-69
2023/07/13 00:29:36;;;;;;;1.87;1.60;;;28.10;49.20;;;;;;4993355;28;20431;-69
2023/07/13 00:32:06;;;;;;;2.33;1.80;;;28.10;49.10;;;;;;4993152;28;20495;-69
2023/07/13 00:34:32;;;;;;;2.50;1.57;;;28.10;49.20;;;;;;4993457;28;20471;-69
2023/07/13 00:36:58;;;;;;;3.37;2.30;;;28.10;49.50;;;;;;4993236;28;20490;-68
2023/07/13 00:39:24;;;;;;;2.10;1.80;;;28.10;49.40;;;;;;4993158;28;20941;-68
2023/07/13 00:41:50;;;;;;;2.17;1.63;;;28.10;49.40;;;;;;4996190;28;20654;-69
2023/07/13 00:44:17;;;;;;;2.63;1.83;;;28.10;49.40;;;;;;4996921;28;20428;-68
2023/07/13 00:46:43;;;;;;;2.37;1.90;;;28.10;49.60;;;;;;4995613;28;20443;-69
2023/07/13 00:49:13;;;;;;;2.23;1.90;;;28.10;49.30;;;;;;4996701;28;20951;-69
2023/07/13 00:52:04;;;;;;;3.90;1.90;;;28.10;49.30;;;;;;4995142;28;20223;-68
2023/07/13 00:54:41;;;;;;;3.30;1.97;;;28.10;49.20;;;;;;4988318;28;20825;-69
2023/07/13 00:57:15;;;;;;;2.90;1.70;;;28.10;49.70;;;;;;4996507;28;20436;-69
2023/07/13 00:59:43;;;;;;;2.27;1.70;;;28.10;49.20;;;;;;4995363;28;20408;-69
2023/07/13 01:02:09;;;;;;;2.67;1.77;;;28.00;49.10;;;;;;4996412;28;20408;-69
2023/07/13 01:04:35;;;;;;;2.37;2.10;;;28.10;49.30;;;;;;4996398;28;20448;-70
2023/07/13 01:07:00;;;;;;;3.37;1.90;;;28.10;49.20;;;;;;4996305;28;20955;-68
2023/07/13 01:09:27;;;;;;;2.83;2.10;;;28.10;49.10;;;;;;4996203;28;20177;-69
2023/07/13 01:11:53;;;;;;;2.40;1.70;;;28.10;49.10;;;;;;4996005;28;20229;-70
2023/07/13 01:14:19;;;;;;;2.17;1.87;;;28.10;49.00;;;;;;4996035;28;20506;-70
2023/07/13 01:16:49;;;;;;;2.23;1.77;;;28.10;48.50;;;;;;4995929;28;20420;-69
2023/07/13 01:19:29;;;;;;;2.27;1.60;;;28.00;48.10;;;;;;4995687;28;20162;-69
2023/07/13 01:21:55;;;;;;;2.50;2.00;;;28.00;48.00;;;;;;4996083;28;20392;-70
2023/07/13 01:24:21;;;;;;;3.23;2.00;;;28.00;48.00;;;;;;4995952;28;20420;-68
2023/07/13 01:26:46;;;;;;;2.20;1.90;;;28.00;47.90;;;;;;4995656;28;20549;-69
2023/07/13 01:29:12;;;;;;;2.63;2.17;;;28.00;47.80;;;;;;4996047;28;20169;-70
2023/07/13 01:31:37;;;;;;;1.80;1.50;;;28.00;47.80;;;;;;4995852;28;20185;-70
2023/07/13 01:34:03;;;;;;;3.07;2.10;;;28.00;47.90;;;;;;4995601;28;20670;-69
2023/07/13 01:36:29;;;;;;;3.10;1.93;;;28.00;48.10;;;;;;4995846;28;20196;-70
2023/07/13 01:38:55;;;;;;;2.30;2.00;;;28.00;48.30;;;;;;4995622;28;20559;-69
2023/07/13 01:41:20;;;;;;;2.10;1.60;;;27.90;48.20;;;;;;4994884;28;20213;-70
2023/07/13 01:43:46;;;;;;;2.33;1.70;;;28.00;49.10;;;;;;4993760;28;21011;-69
2023/07/13 01:46:11;;;;;;;2.87;2.00;;;28.00;48.60;;;;;;4995034;28;20185;-69
2023/07/13 01:48:37;;;;;;;1.87;1.53;;;27.90;48.70;;;;;;4993547;28;20251;-69
2023/07/13 01:51:03;;;;;;;3.10;1.80;;;27.90;48.80;;;;;;4993303;28;20634;-69
2023/07/13 01:53:28;;;;;;;2.17;1.83;;;27.90;48.60;;;;;;4993064;28;20197;-69
2023/07/13 01:55:54;;;;;;;2.97;1.97;;;27.90;48.60;;;;;;4975839;28;20181;-69
2023/07/13 01:58:20;;;;;;;3.47;1.80;;;27.90;48.50;;;;;;4994852;28;20205;-70
2023/07/13 02:00:48;;;;;;;2.77;2.00;;;27.90;48.40;;;;;;4995283;28;20185;-69
2023/07/13 02:03:17;;;;;;;2.63;2.13;;;28.00;48.50;;;;;;4994078;28;20257;-69
2023/07/13 02:05:44;;;;;;;1.90;1.70;;;27.90;48.40;;;;;;4978322;28;20420;-69
2023/07/13 02:08:09;;;;;;;2.03;1.83;;;27.90;48.30;;;;;;4995409;28;20964;-70
2023/07/13 02:10:36;;;;;;;2.53;1.80;;;27.90;48.40;;;;;;4995095;28;20412;-69
2023/07/13 02:13:04;;;;;;;2.77;1.90;;;27.90;48.50;;;;;;4995002;28;20232;-69
2023/07/13 02:15:29;;;;;;;3.67;2.07;;;27.90;48.50;;;;;;4995166;28;20466;-69
2023/07/13 02:17:56;;;;;;;2.03;1.83;;;27.90;48.50;;;;;;4994927;28;20801;-69
2023/07/13 02:20:22;;;;;;;4.83;1.70;;;27.90;48.50;;;;;;4993945;28;20261;-70
2023/07/13 02:22:48;;;;;;;3.67;2.00;;;27.90;48.50;;;;;;4994910;28;20416;-69
2023/07/13 02:25:14;;;;;;;2.73;1.70;;;27.90;48.60;;;;;;4994616;28;20203;-69
2023/07/13 02:27:39;;;;;;;2.53;1.83;;;27.90;48.70;;;;;;4995190;28;20682;-69
2023/07/13 02:30:06;;;;;;;5.27;1.97;;;27.90;48.60;;;;;;4994896;28;20412;-70
2023/07/13 02:32:31;;;;;;;3.13;2.00;;;27.90;48.60;;;;;;4994487;28;20251;-69
2023/07/13 02:34:57;;;;;;;2.93;2.07;;;27.90;48.60;;;;;;4994513;28;20550;-70
2023/07/13 02:37:23;;;;;;;2.63;1.87;;;27.90;48.40;;;;;;4994533;28;20196;-69
2023/07/13 02:39:48;;;;;;;2.63;1.80;;;27.90;48.30;;;;;;4994509;28;20177;-69
2023/07/13 02:42:14;;;;;;;4.63;1.83;;;27.90;47.90;;;;;;4994233;28;20204;-70
2023/07/13 02:44:39;;;;;;;3.40;2.57;;;27.90;48.30;;;;;;4994265;28;20672;-70
2023/07/13 02:47:05;;;;;;;1.80;1.60;;;27.90;47.60;;;;;;4993957;28;20287;-70
2023/07/13 02:49:31;;;;;;;3.70;2.10;;;27.90;47.60;;;;;;4994562;28;20188;-69
2023/07/13 02:51:57;;;;;;;2.87;1.77;;;27.90;47.50;;;;;;4994208;28;20181;-70
2023/07/13 02:54:22;;;;;;;2.73;2.20;;;27.80;47.40;;;;;;4993967;28;20693;-69
2023/07/13 02:56:48;;;;;;;3.17;2.30;;;27.80;47.40;;;;;;4993775;28;20196;-69
2023/07/13 02:59:13;;;;;;;2.43;1.90;;;27.80;47.40;;;;;;4994148;28;20235;-70
2023/07/13 03:01:39;;;;;;;2.10;1.87;;;27.80;47.30;;;;;;4993992;28;20610;-69
2023/07/13 03:04:05;;;;;;;2.50;1.63;;;27.80;47.50;;;;;;4993993;28;20176;-69
2023/07/13 03:06:32;;;;;;;2.57;2.03;;;27.80;47.70;;;;;;4993869;28;20420;-70
2023/07/13 03:08:58;;;;;;;2.17;1.60;;;27.80;47.70;;;;;;4993909;28;20215;-69
2023/07/13 03:11:23;;;;;;;2.30;1.90;;;27.80;47.80;;;;;;4994386;28;20420;-69
2023/07/13 03:13:49;;;;;;;3.07;1.93;;;27.80;47.80;;;;;;4993894;28;20256;-69
2023/07/13 03:16:16;;;;;;;3.23;1.80;;;27.80;48.00;;;;;;4993952;28;20608;-70
2023/07/13 03:18:42;;;;;;;2.60;1.80;;;27.80;47.90;;;;;;4993736;28;20670;-70
2023/07/13 03:21:08;;;;;;;3.47;2.20;;;27.80;48.00;;;;;;4994050;28;20495;-71
2023/07/13 03:23:34;;;;;;;2.37;1.77;;;27.80;48.00;;;;;;4994011;28;20447;-69
2023/07/13 03:26:06;;;;;;;3.10;2.30;;;27.80;48.10;;;;;;4993994;28;20712;-68
2023/07/13 03:28:31;;;;;;;2.47;1.90;;;27.80;48.10;;;;;;4993860;28;20196;-69
2023/07/13 03:31:02;;;;;;;2.37;2.13;;;27.80;48.10;;;;;;4993751;28;20432;-68
2023/07/13 03:33:28;;;;;;;2.37;2.00;;;27.80;48.10;;;;;;4993763;28;20185;-69
2023/07/13 03:35:54;;;;;;;2.57;2.10;;;27.80;48.10;;;;;;4993758;28;20416;-69
2023/07/13 03:38:19;;;;;;;2.70;2.30;;;27.80;48.20;;;;;;4993564;28;20293;-68
2023/07/13 03:40:45;;;;;;;2.63;2.13;;;27.80;48.10;;;;;;4993816;28;20169;-69
2023/07/13 03:43:11;;;;;;;2.60;2.30;;;27.80;48.10;;;;;;4993580;28;20272;-69
2023/07/13 03:45:38;;;;;;;2.60;1.93;;;27.80;47.80;;;;;;4993564;28;20177;-69
2023/07/13 03:48:04;;;;;;;1.97;1.77;;;27.80;47.60;;;;;;4993478;28;20201;-69
2023/07/13 03:50:30;;;;;;;2.53;1.73;;;27.80;47.50;;;;;;4993484;28;20558;-69
2023/07/13 03:52:57;;;;;;;3.33;2.20;;;27.80;47.60;;;;;;4992226;28;20534;-69
2023/07/13 03:55:23;;;;;;;2.37;2.17;;;27.80;47.50;;;;;;4993176;28;20282;-69
2023/07/13 03:57:58;;;;;;;2.47;2.00;;;27.70;47.40;;;;;;4993272;28;20522;-69
2023/07/13 04:00:24;;;;;;;1.90;1.50;;;27.70;47.40;;;;;;4993256;28;20196;-68
2023/07/13 04:02:50;;;;;;;3.70;2.20;;;27.70;47.40;;;;;;4993366;28;20416;-69
2023/07/13 04:05:15;;;;;;;2.40;2.20;;;27.70;47.30;;;;;;4993674;28;20420;-69
2023/07/13 04:07:41;;;;;;;6.67;2.27;;;27.70;47.40;;;;;;4993216;28;20665;-68
2023/07/13 04:10:07;;;;;;;2.60;2.20;;;27.70;47.30;;;;;;4993572;28;20643;-69
2023/07/13 04:12:33;;;;;;;2.80;1.90;;;27.70;47.30;;;;;;4993702;28;20185;-69
2023/07/13 04:14:58;;;;;;;2.37;2.10;;;27.70;47.30;;;;;;4993974;28;20460;-70
2023/07/13 04:17:24;;;;;;;2.20;2.00;;;27.60;47.20;;;;;;4997289;28;20612;-69
2023/07/13 04:19:50;;;;;;;3.43;2.13;;;27.60;47.30;;;;;;4995636;28;20299;-68
2023/07/13 04:22:15;;;;;;;3.00;1.83;;;27.60;47.30;;;;;;4997040;28;20178;-68
2023/07/13 04:24:41;;;;;;;1.90;1.60;;;27.60;47.30;;;;;;4996841;28;20638;-69
2023/07/13 04:27:07;;;;;;;10.80;2.67;;;27.60;47.40;;;;;;4996834;28;20205;-69
2023/07/13 04:29:33;;;;;;;2.23;2.03;;;27.60;47.40;;;;;;4995386;28;20189;-69
2023/07/13 04:31:58;;;;;;;2.10;1.90;;;27.60;47.50;;;;;;4996907;28;20450;-69
2023/07/13 04:34:24;;;;;;;2.63;1.80;;;27.60;47.50;;;;;;4996729;28;20592;-69
2023/07/13 04:36:50;;;;;;;2.73;1.90;;;27.60;47.60;;;;;;4996625;28;20195;-69
2023/07/13 04:39:16;;;;;;;4.93;2.00;;;27.70;47.70;;;;;;4995901;28;20581;-69
2023/07/13 04:41:41;;;;;;;2.53;2.13;;;27.70;47.80;;;;;;4996819;28;20264;-70
2023/07/13 04:44:07;;;;;;;1.70;1.50;;;27.60;47.90;;;;;;4996889;28;20917;-70
2023/07/13 04:46:32;;;;;;;2.13;1.90;;;27.70;48.20;;;;;;4997540;28;20181;-70
2023/07/13 04:48:58;;;;;;;2.37;1.90;;;27.70;48.10;;;;;;4997462;28;20200;-70
2023/07/13 04:51:24;;;;;;;2.80;2.10;;;27.70;48.10;;;;;;4997601;28;20272;-69
2023/07/13 04:53:50;;;;;;;3.53;1.83;;;27.70;47.90;;;;;;4997679;28;20286;-69
2023/07/13 04:56:15;;;;;;;2.23;2.03;;;27.70;47.70;;;;;;4995774;28;20236;-70
2023/07/13 04:58:41;;;;;;;2.50;1.90;;;27.70;48.30;;;;;;4997375;28;20197;-70
2023/07/13 05:01:08;;;;;;;2.00;1.80;;;27.70;47.90;;;;;;4997171;28;20193;-69
2023/07/13 05:03:34;;;;;;;2.30;1.80;;;27.70;47.70;;;;;;4995989;28;20178;-69
2023/07/13 05:06:03;;;;;;;2.70;1.90;;;27.70;47.80;;;;;;4996187;28;20423;-69
2023/07/13 05:08:29;;;;;;;2.73;1.93;;;27.70;48.00;;;;;;4996157;28;20467;-69
2023/07/13 05:10:54;;;;;;;2.00;1.70;;;27.70;47.90;;;;;;4995995;28;20447;-69
2023/07/13 05:13:20;;;;;;;2.60;1.97;;;27.70;47.70;;;;;;4994178;28;20189;-69
2023/07/13 05:15:55;;;;;;;2.17;1.70;;;27.70;47.80;;;;;;4994463;28;20268;-70
2023/07/13 05:18:21;;;;;;;2.10;1.83;;;27.70;47.80;;;;;;4995283;28;20530;-69
2023/07/13 05:20:47;;;;;;;2.80;2.00;;;27.70;47.70;;;;;;4995693;28;20491;-70
2023/07/13 05:23:12;;;;;;;2.13;1.77;;;27.70;47.60;;;;;;4995697;28;20541;-69
2023/07/13 05:25:38;;;;;;;2.17;1.70;;;27.70;47.40;;;;;;4995286;28;20218;-69
2023/07/13 05:28:04;;;;;;;3.43;1.50;;;27.70;47.40;;;;;;4995671;28;20197;-70
2023/07/13 05:30:30;;;;;;;2.57;2.10;;;27.70;47.10;;;;;;4994639;28;20956;-69
2023/07/13 05:32:55;;;;;;;3.20;1.83;;;27.60;46.80;;;;;;4995777;28;20240;-70
2023/07/13 05:35:21;;;;;;;2.60;1.90;;;27.60;46.70;;;;;;4995324;28;20201;-70
2023/07/13 05:37:46;;;;;;;2.23;1.63;;;27.60;46.60;;;;;;4995354;28;20702;-69
2023/07/13 05:40:12;;;;;;;2.70;1.77;;;27.60;46.70;;;;;;4995498;28;20173;-69
2023/07/13 05:42:37;;;;;;;2.20;1.83;;;27.50;47.10;;;;;;4995156;28;20196;-69
2023/07/13 05:45:03;;;;;;;3.60;2.37;;;27.60;47.00;;;;;;4994769;28;20177;-68
2023/07/13 05:47:29;;;;;;;2.90;1.90;;;27.50;46.80;;;;;;4994471;28;20616;-68
2023/07/13 05:49:55;;;;;;;5.10;1.90;;;27.50;47.00;;;;;;4994365;28;20183;-67
2023/07/13 05:52:20;;;;;;;1.87;1.70;;;27.60;47.60;;;;;;4994410;28;20423;-67
2023/07/13 05:54:46;;;;;;;2.10;1.57;;;27.60;48.10;;;;;;4994242;28;20730;-67
2023/07/13 05:57:11;;;;;;;3.20;2.10;;;27.60;48.30;;;;;;4994247;28;20201;-68
2023/07/13 05:59:37;;;;;;;2.00;1.80;;;27.60;48.50;;;;;;4994707;28;20204;-67
2023/07/13 06:02:03;;;;;;;4.80;1.93;;;27.60;48.70;;;;;;4994280;28;20220;-68
2023/07/13 06:04:29;;;;;;;4.43;2.57;;;27.60;48.80;;;;;;4994048;28;20177;-69
2023/07/13 06:06:54;;;;;;;2.40;1.83;;;27.60;48.80;;;;;;4994055;28;20184;-68
2023/07/13 06:09:20;;;;;;;2.70;2.10;;;27.70;49.00;;;;;;4994091;28;20177;-68
2023/07/13 06:11:45;;;;;;;2.90;2.23;;;27.70;49.00;;;;;;4993994;28;20169;-68
2023/07/13 06:14:11;;;;;;;4.07;2.03;;;27.80;49.10;;;;;;4994159;28;20211;-68
2023/07/13 06:16:36;;;;;;;6.13;2.60;;;27.80;49.20;;;;;;4992511;28;20169;-68
2023/07/13 06:19:02;;;;;;;4.13;2.10;;;27.80;49.20;;;;;;4993864;28;20254;-69
2023/07/13 06:21:27;;;;;;;3.00;1.80;;;27.80;49.20;;;;;;4993773;28;20169;-68
2023/07/13 06:23:53;;;;;;;4.60;1.80;;;27.80;49.20;;;;;;4993816;28;20670;-68
2023/07/13 06:26:20;;;;;;;2.73;1.80;;;27.80;49.20;;;;;;4993999;28;20277;-68
2023/07/13 06:28:46;;;;;;;2.07;1.83;;;27.90;49.20;;;;;;4993622;28;20196;-68
2023/07/13 06:31:13;;;;;;;3.67;2.10;;;27.90;49.20;;;;;;4993608;28;20408;-68
2023/07/13 06:33:39;;;;;;;3.50;1.83;;;27.90;49.20;;;;;;4993507;28;20244;-68
2023/07/13 06:36:07;;;;;;;3.67;2.17;;;27.90;49.20;;;;;;4993563;28;20921;-68
2023/07/13 06:38:33;;;;;;;3.30;1.80;;;27.90;49.20;;;;;;4992982;28;20195;-69
2023/07/13 06:40:59;;;;;;;2.73;1.90;;;27.90;49.10;;;;;;4993709;28;20924;-68
2023/07/13 06:43:25;;;;;;;3.73;2.40;;;28.00;49.10;;;;;;4993440;28;20412;-69
2023/07/13 06:45:54;;;;;;;4.70;2.00;;;28.00;49.00;;;;;;4993538;28;20644;-68
2023/07/13 06:48:19;;;;;;;5.90;2.60;;;28.00;48.90;;;;;;4993419;28;20428;-69
2023/07/13 06:50:46;;;;;;;4.67;2.20;;;28.00;48.90;;;;;;4993352;28;20415;-69
2023/07/13 06:53:13;;;;;;;2.97;2.03;;;28.00;49.00;;;;;;4993290;28;20177;-69
2023/07/13 06:55:39;;;;;;;15.40;2.40;;;28.00;49.10;;;;;;4993469;28;20467;-69
2023/07/13 06:58:05;;;;;;;3.03;1.87;;;27.90;48.90;;;;;;4993108;28;20949;-69
2023/07/13 07:00:31;;;;;;;3.80;2.30;;;28.00;49.00;;;;;;4993141;28;20428;-69
2023/07/13 07:02:57;;;;;;;2.73;2.10;;;28.00;49.00;;;;;;4993070;28;20899;-69
2023/07/13 07:05:22;;;;;;;4.03;2.17;;;28.00;48.90;;;;;;4993436;28;20408;-67
2023/07/13 07:07:50;;;;;;;2.30;1.83;;;28.00;48.90;;;;;;4993093;28;20459;-67
2023/07/13 07:10:16;;;;;;;2.70;1.77;;;28.00;48.90;;;;;;4993028;28;20177;-68
2023/07/13 07:12:42;;;;;;;4.10;1.83;;;28.00;48.90;;;;;;4993066;28;20420;-69
2023/07/13 07:15:07;;;;;;;3.00;2.07;;;28.00;48.80;;;;;;4993186;28;20483;-68
2023/07/13 07:17:33;;;;;;;5.90;2.30;;;28.00;48.80;;;;;;4992900;28;20201;-68
2023/07/13 07:19:59;;;;;;;2.50;1.87;;;28.00;48.80;;;;;;4993022;28;20180;-68
2023/07/13 07:22:27;;;;;;;3.30;1.80;;;28.00;48.80;;;;;;4992938;28;20205;-69
2023/07/13 07:24:53;;;;;;;3.77;1.70;;;28.00;48.80;;;;;;4992867;28;20169;-68
2023/07/13 07:27:18;;;;;;;3.30;2.53;;;28.00;48.80;;;;;;4992763;28;20466;-67
2023/07/13 07:29:44;;;;;;;2.27;1.47;;;28.00;48.80;;;;;;4992841;28;20467;-68
2023/07/13 07:32:10;;;;;;;2.40;1.90;;;28.00;48.80;;;;;;4992888;28;20173;-69
2023/07/13 07:34:35;;;;;;;3.37;1.93;;;28.00;48.80;;;;;;4992736;28;20212;-68
2023/07/13 07:37:02;;;;;;;2.20;2.00;;;28.00;48.80;;;;;;4992616;28;20220;-68
2023/07/13 07:39:28;;;;;;;2.73;1.80;;;28.00;48.80;;;;;;4993018;28;20184;-68
2023/07/13 07:41:53;;;;;;;2.10;1.63;;;28.00;48.70;;;;;;4991578;28;20424;-68
2023/07/13 07:44:19;;;;;;;3.80;2.10;;;28.00;48.70;;;;;;4992678;28;20169;-68
2023/07/13 07:46:44;;;;;;;4.57;2.00;;;28.00;48.70;;;;;;4992598;28;20208;-68
2023/07/13 07:49:10;;;;;;;3.17;1.80;;;28.00;48.70;;;;;;4991444;28;20180;-68
2023/07/13 07:51:36;;;;;;;2.13;1.70;;;28.00;48.70;;;;;;4996041;28;20188;-68
2023/07/13 07:54:03;;;;;;;5.10;2.00;;;28.00;48.60;;;;;;4996992;28;20549;-67
2023/07/13 07:56:28;;;;;;;2.03;1.60;;;28.00;48.60;;;;;;4996543;28;20403;-68
2023/07/13 07:58:54;;;;;;;2.60;1.60;;;28.00;48.60;;;;;;4996532;28;20983;-68
2023/07/13 08:01:20;;;;;;;2.50;1.67;;;28.00;48.60;;;;;;4996594;28;20212;-68
2023/07/13 08:03:45;;;;;;;2.00;1.80;;;28.00;48.60;;;;;;4996655;28;20658;-68
2023/07/13 08:06:11;;;;;;;2.20;1.63;;;28.00;48.50;;;;;;4996610;28;20642;-68
2023/07/13 08:08:36;;;;;;;3.77;1.60;;;28.00;48.40;;;;;;4996366;28;20269;-68
2023/07/13 08:11:04;;;;;;;4.80;1.83;;;28.00;48.70;;;;;;4996522;28;20674;-68
2023/07/13 08:13:29;;;;;;;2.60;1.70;;;28.00;48.40;;;;;;4996286;28;20609;-68
2023/07/13 08:15:55;;;;;;;2.20;1.70;;;28.00;48.40;;;;;;4996355;28;20419;-68
2023/07/13 08:18:20;;;;;;;3.80;2.20;;;28.00;48.30;;;;;;4994920;28;20561;-68
2023/07/13 08:20:46;;;;;;;3.97;2.10;;;28.00;48.30;;;;;;4996334;28;20165;-68
2023/07/13 08:23:12;;;;;;;1.83;1.57;;;28.00;48.20;;;;;;4996281;28;20665;-67
2023/07/13 08:25:37;;;;;;;2.80;1.33;;;28.00;48.10;;;;;;4996113;28;20173;-67
2023/07/13 08:28:04;;;;;;;2.10;1.90;;;28.00;48.20;;;;;;4996122;28;20204;-68
2023/07/13 08:30:29;;;;;;;2.97;1.60;;;28.00;48.20;;;;;;4996386;28;20213;-68
2023/07/13 08:32:55;;;;;;;2.43;1.73;;;28.00;48.20;;;;;;4996032;28;20502;-68
2023/07/13 08:35:20;;;;;;;2.53;1.70;;;28.00;48.20;;;;;;4995969;28;20679;-68
2023/07/13 08:37:46;;;;;;;1.83;1.53;;;28.00;48.20;;;;;;4996137;28;20288;-68
2023/07/13 08:40:12;;;;;;;2.33;1.53;;;28.00;48.10;;;;;;4996514;28;20183;-66
2023/07/13 08:42:45;;;;;;;3.70;1.27;;;28.00;48.10;;;;;;4996092;28;20169;-68
2023/07/13 08:45:24;;;;;;;1.53;1.27;;;28.10;48.10;;;;;;4996074;28;20422;-68
2023/07/13 08:48:03;;;;;;;3.37;1.47;;;28.00;48.10;;;;;;4995883;28;20446;-68
2023/07/13 08:50:35;;;;;;;1.80;1.40;;;28.00;48.10;;;;;;4996118;28;20396;-68
2023/07/13 08:53:02;;;;;;;1.87;1.30;;;28.00;48.10;;;;;;4994750;28;20504;-68
2023/07/13 08:55:33;;;;;;;2.90;1.53;;;28.00;48.00;;;;;;4995759;28;20460;-68
2023/07/13 08:58:10;;;;;;;1.40;1.20;;;28.00;47.90;;;;;;4994452;28;20444;-68
2023/07/13 09:00:48;;;;;;;2.20;1.80;;;28.00;47.90;;;;;;4994820;28;20998;-69
2023/07/13 09:03:21;;;;;;;1.70;1.07;;;28.00;47.80;;;;;;4995622;28;20427;-68
2023/07/13 09:05:56;;;;;;;4.40;1.40;;;28.00;47.90;;;;;;4995657;28;20432;-68
2023/07/13 09:08:46;;;;;;;2.00;1.50;;;28.00;47.80;;;;;;4995246;28;20439;-68
2023/07/13 09:11:30;;;;;;;1.50;1.37;;;28.00;47.70;;;;;;4995792;28;20400;-68
2023/07/13 09:14:03;;;;;;;2.60;1.30;;;28.00;47.90;;;;;;4995255;28;20450;-68
2023/07/13 09:16:29;;;;;;;1.60;1.10;;;28.00;47.90;;;;;;4995415;28;20413;-68
2023/07/13 09:19:04;;;;;;;1.43;1.30;;;28.00;47.90;;;;;;4995262;28;20521;-68
2023/07/13 09:21:37;;;;;;;2.67;1.27;;;28.00;47.90;;;;;;4995181;28;20176;-68
2023/07/13 09:24:21;;;;;;;4.60;1.20;;;28.00;47.90;;;;;;4995353;28;20409;-68
2023/07/13 09:26:47;;;;;;;1.70;1.00;;;28.00;47.70;;;;;;4995158;28;20977;-68
2023/07/13 09:29:21;;;;;;;2.77;1.60;;;28.00;48.30;;;;;;4997125;28;20921;-69
2023/07/13 09:31:52;;;;;;;2.13;1.50;;;28.00;47.70;;;;;;4998228;28;20761;-68
2023/07/13 09:34:18;;;;;;;2.30;1.27;;;28.00;47.70;;;;;;4995423;28;20481;-68
2023/07/13 09:36:44;;;;;;;1.67;1.20;;;28.00;47.60;;;;;;4995171;28;20495;-69
2023/07/13 09:39:40;;;;;;;2.97;1.27;;;28.00;47.60;;;;;;4995014;28;20594;-68
2023/07/13 09:42:18;;;;;;;2.07;1.20;;;28.00;47.50;;;;;;4995218;28;20408;-68
2023/07/13 09:44:58;;;;;;;2.23;1.30;;;28.00;47.50;;;;;;4994817;28;20408;-68
2023/07/13 09:47:26;;;;;;;2.90;1.43;;;28.00;47.40;;;;;;4995026;28;20794;-68
2023/07/13 09:49:58;;;;;;;2.30;1.70;;;28.00;47.40;;;;;;4995052;28;20416;-68
2023/07/13 09:52:25;;;;;;;2.70;1.40;;;28.00;47.70;;;;;;4994811;28;20408;-68
2023/07/13 09:54:54;;;;;;;2.17;1.30;;;28.00;47.20;;;;;;4994717;28;20459;-68
2023/07/13 09:57:23;;;;;;;1.93;1.10;;;28.00;47.20;;;;;;4995263;28;20460;-69
2023/07/13 09:59:51;;;;;;;1.80;1.10;;;27.90;47.20;;;;;;4994766;28;20415;-69
2023/07/13 10:02:30;;;;;;;2.00;1.00;;;28.00;47.30;;;;;;4993533;28;20416;-69
2023/07/13 10:05:16;;;;;;;1.40;1.07;;;28.00;47.20;;;;;;4994032;28;20412;-68
2023/07/13 10:07:45;;;;;;;2.37;1.50;;;28.00;47.20;;;;;;4995903;28;20444;-69
2023/07/13 10:10:20;;;;;;;1.50;1.00;;;28.00;47.20;;;;;;4998904;28;20409;-68
2023/07/13 10:12:47;;;;;;;1.30;1.00;;;28.00;47.10;;;;;;5005122;28;20384;-69
2023/07/13 10:15:19;;;;;;;1.43;1.23;;;28.00;47.10;;;;;;5006058;28;20456;-69
2023/07/13 10:17:46;;;;;;;2.57;1.50;;;28.00;47.00;;;;;;5005821;28;20424;-69
2023/07/13 10:20:14;;;;;;;1.67;1.10;;;28.00;47.00;;;;;;5006500;28;20435;-69
2023/07/13 10:23:01;;;;;;;2.43;1.40;;;27.90;47.00;;;;;;5006010;28;20433;-69
2023/07/13 10:25:34;;;;;;;1.70;1.10;;;28.00;46.80;;;;;;5005278;28;20442;-69
2023/07/13 10:28:29;;;;;;;1.83;1.30;;;28.00;46.80;;;;;;5005475;28;20428;-68
2023/07/13 10:30:56;;;;;;;2.07;1.47;;;28.00;46.80;;;;;;5000347;28;20436;-69
2023/07/13 10:33:23;;;;;;;1.70;1.20;;;27.90;47.30;;;;;;5006150;28;20412;-69
2023/07/13 10:35:51;;;;;;;2.67;1.40;;;27.90;46.60;;;;;;5004622;28;20824;-69
2023/07/13 10:38:23;;;;;;;1.40;1.07;;;27.90;46.40;;;;;;4999580;28;20428;-69
2023/07/13 10:40:56;;;;;;;1.70;1.10;;;27.90;46.20;;;;;;4999841;28;20439;-69
2023/07/13 10:43:44;;;;;;;1.70;1.27;;;27.90;46.20;;;;;;5000171;28;20908;-69
2023/07/13 10:46:14;;;;;;;1.30;1.10;;;28.00;46.20;;;;;;4999667;28;20412;-69
2023/07/13 10:48:42;;;;;;;2.97;1.37;;;27.90;46.10;;;;;;4998965;28;20972;-68
2023/07/13 10:51:09;;;;;;;1.87;1.00;;;27.90;45.90;;;;;;4997058;28;20412;-68
2023/07/13 10:53:37;;;;;;;2.17;1.53;;;27.90;46.10;;;;;;4997409;28;20491;-68
2023/07/13 10:56:08;;;;;;;1.63;1.03;;;27.90;46.40;;;;;;4997466;28;20400;-68
2023/07/13 10:58:36;;;;;;;2.60;1.13;;;27.90;46.30;;;;;;4997069;28;20495;-68
2023/07/13 11:01:16;;;;;;;1.43;1.07;;;27.90;46.30;;;;;;4997487;28;20526;-69
2023/07/13 11:03:59;;;;;;;1.77;1.10;;;27.90;46.30;;;;;;4997381;28;20781;-68
2023/07/13 11:06:30;;;;;;;2.60;1.30;;;27.90;46.60;;;;;;4995392;28;20396;-68
2023/07/13 11:08:59;;;;;;;1.90;1.30;;;27.90;46.60;;;;;;4997403;28;20478;-68
2023/07/13 11:11:38;;;;;;;2.13;1.20;;;27.90;46.70;;;;;;4997020;28;20788;-67
2023/07/13 11:14:25;;;;;;;4.67;1.90;;;27.90;46.70;;;;;;4997471;28;20459;-68
2023/07/13 11:16:51;;;;;;;1.90;1.60;;;27.90;46.60;;;;;;4996834;28;20925;-67
2023/07/13 11:19:16;;;;;;;3.67;2.03;;;27.90;46.70;;;;;;4997381;28;20496;-68
2023/07/13 11:22:42;;;;;;;9.33;2.50;;;27.90;46.70;;;;;;4996634;28;20550;-67
2023/07/13 11:25:29;;;;;;;8.57;3.10;;;27.90;46.60;;;;;;4936551;29;20559;-68
2023/07/13 11:28:12;;;;;;;14.57;4.57;;;27.90;46.60;;;;;;4937158;29;20815;-68
2023/07/13 11:30:59;;;;;;;7.57;3.60;;;27.90;46.20;;;;;;4989918;28;20780;-68
2023/07/13 11:33:30;;;;;;;14.47;4.07;;;27.90;46.00;;;;;;4998242;28;20476;-68
2023/07/13 11:36:21;;;;;;;10.00;4.23;;;27.90;45.60;;;;;;4997635;28;20404;-67
2023/07/13 11:39:11;;;;;;;9.60;2.70;;;27.80;45.30;;;;;;4996779;28;20484;-68
2023/07/13 11:41:45;;;;;;;5.90;3.00;;;27.90;45.30;;;;;;4986072;28;20427;-68
2023/07/13 11:44:12;;;;;;;4.30;2.63;;;27.90;45.30;;;;;;4997297;28;20472;-68
2023/07/13 11:46:38;;;;;;;4.53;3.20;;;27.90;45.90;;;;;;4998014;28;20408;-68
2023/07/13 11:49:07;;;;;;;7.60;3.37;;;27.90;45.10;;;;;;4999101;28;20455;-68
2023/07/13 11:51:35;;;;;;;9.00;2.97;;;27.90;45.50;;;;;;4999786;28;20184;-68
2023/07/13 11:54:05;;;;;;;5.43;2.67;;;27.80;45.20;;;;;;5000606;28;20464;-69
2023/07/13 11:56:33;;;;;;;5.00;2.17;;;27.90;45.50;;;;;;5001483;28;20443;-68
2023/07/13 11:59:06;;;;;;;4.33;2.10;;;27.90;45.30;;;;;;5001295;28;20435;-68
2023/07/13 12:01:32;;;;;;;6.77;2.70;;;27.80;45.00;;;;;;5001995;28;20428;-68
2023/07/13 12:04:00;;;;;;;5.67;2.10;;;27.90;44.90;;;;;;5001707;28;20443;-68
2023/07/13 12:06:29;;;;;;;3.37;2.13;;;27.90;44.90;;;;;;4998700;28;20405;-68
2023/07/13 12:09:00;;;;;;;4.53;2.00;;;27.90;44.80;;;;;;4996729;28;20451;-67
2023/07/13 12:11:27;;;;;;;4.90;2.20;;;27.90;44.60;;;;;;4995855;28;20420;-68
2023/07/13 12:13:53;;;;;;;4.20;2.30;;;27.90;44.70;;;;;;4998395;28;20460;-68
2023/07/13 12:16:32;;;;;;;3.10;2.00;;;27.80;44.50;;;;;;5000301;28;20495;-68
2023/07/13 12:19:00;;;;;;;4.60;2.50;;;27.90;44.50;;;;;;5001778;28;20562;-68
2023/07/13 12:21:37;;;;;;;3.77;2.33;;;27.80;44.30;;;;;;5001618;28;20407;-68
2023/07/13 12:24:03;;;;;;;3.37;2.47;;;27.80;44.20;;;;;;5000550;28;20462;-68
2023/07/13 12:26:30;;;;;;;2.50;1.70;;;27.80;44.10;;;;;;5000517;28;20447;-68
2023/07/13 12:29:00;;;;;;;3.83;1.77;;;27.80;44.00;;;;;;5002934;28;20447;-68
2023/07/13 12:31:29;;;;;;;3.63;2.30;;;27.80;43.90;;;;;;5003977;28;20416;-69
2023/07/13 12:34:06;;;;;;;3.30;1.90;;;27.80;44.50;;;;;;5003895;28;20455;-69
2023/07/13 12:36:35;;;;;;;3.37;1.53;;;27.80;45.00;;;;;;5005075;28;20407;-68
2023/07/13 12:39:11;;;;;;;3.93;1.60;;;27.80;45.10;;;;;;5006539;28;20440;-68
2023/07/13 12:41:36;;;;;;;2.30;1.70;;;27.80;45.20;;;;;;5005777;28;20407;-68
2023/07/13 12:44:03;;;;;;;4.43;2.50;;;27.80;45.30;;;;;;5006183;28;20408;-68
2023/07/13 12:46:29;;;;;;;1.80;1.30;;;27.80;45.50;;;;;;5005856;28;20184;-69
2023/07/13 12:48:57;;;;;;;3.07;1.93;;;27.80;45.60;;;;;;5005724;28;20431;-69
2023/07/13 12:51:25;;;;;;;1.80;1.30;;;27.80;45.70;;;;;;5005208;28;20419;-68
2023/07/13 12:53:59;;;;;;;5.17;1.80;;;27.80;45.80;;;;;;5006216;28;20471;-68